createdAt,value
2023-05-09T00:02:25.547Z,60.57
2023-05-09T00:04:53.399Z,60.79
2023-05-09T00:07:21.192Z,60.53
2023-05-09T00:10:24.745Z,61.01
2023-05-09T00:12:52.614Z,61.03
2023-05-09T00:15:20.328Z,61.09
2023-05-09T00:17:51.422Z,60.81
2023-05-09T00:20:20.102Z,61.06
2023-05-09T00:22:47.788Z,61.19
2023-05-09T00:25:17.122Z,61.08
2023-05-09T00:27:45.016Z,60.97
2023-05-09T00:30:13.004Z,60.97
2023-05-09T00:32:41.533Z,61.17
2023-05-09T00:35:09.979Z,61.41
2023-05-09T00:37:37.808Z,61.06
2023-05-09T00:40:07.510Z,61.15
2023-05-09T00:42:36.720Z,61.24
2023-05-09T00:45:04.705Z,61.21
2023-05-09T00:47:32.375Z,61.37
2023-05-09T00:50:00.085Z,61.18
2023-05-09T00:52:27.896Z,61.41
2023-05-09T00:54:55.808Z,61.47
2023-05-09T00:57:23.433Z,61.22
2023-05-09T00:59:52.553Z,61.31
2023-05-09T01:02:20.283Z,60.88
2023-05-09T01:04:48.042Z,61.07
2023-05-09T01:07:20.136Z,61.18
2023-05-09T01:09:50.867Z,61.38
2023-05-09T01:12:24.396Z,61.16
2023-05-09T01:14:57.128Z,61.30
2023-05-09T01:17:28.260Z,61.07
2023-05-09T01:20:00.691Z,61.14
2023-05-09T01:22:33.244Z,60.75
2023-05-09T01:25:12.978Z,60.84
2023-05-09T01:27:45.480Z,60.85
2023-05-09T01:30:14.692Z,61.19
2023-05-09T01:32:43.234Z,61.00
2023-05-09T01:35:12.476Z,61.03
2023-05-09T01:37:43.099Z,61.20
2023-05-09T01:40:14.113Z,61.10
2023-05-09T01:42:43.605Z,60.93
2023-05-09T01:45:12.400Z,60.97
2023-05-09T01:47:41.734Z,60.85
2023-05-09T01:50:10.680Z,60.78
2023-05-09T01:52:38.669Z,61.08
2023-05-09T01:55:07.522Z,61.15
2023-05-09T01:57:35.531Z,60.99
2023-05-09T02:00:03.397Z,61.27
2023-05-09T02:02:31.100Z,60.89
2023-05-09T02:05:00.281Z,60.97
2023-05-09T02:07:27.948Z,60.80
2023-05-09T02:09:56.439Z,60.83
2023-05-09T02:12:24.384Z,60.50
2023-05-09T02:14:52.254Z,60.78
2023-05-09T02:17:21.663Z,61.00
2023-05-09T02:19:49.458Z,60.81
2023-05-09T02:22:18.580Z,60.56
2023-05-09T02:24:46.258Z,60.96
2023-05-09T02:27:13.996Z,60.87
2023-05-09T02:29:44.301Z,60.61
2023-05-09T02:32:13.680Z,60.57
2023-05-09T02:34:41.947Z,60.83
2023-05-09T02:37:09.685Z,61.13
2023-05-09T02:39:38.750Z,60.68
2023-05-09T02:42:08.021Z,60.87
2023-05-09T02:44:36.181Z,60.84
2023-05-09T02:47:03.972Z,60.31
2023-05-09T02:49:32.758Z,60.80
2023-05-09T02:52:01.403Z,61.25
2023-05-09T02:54:29.413Z,60.63
2023-05-09T02:56:59.198Z,60.80
2023-05-09T02:59:27.002Z,60.49
2023-05-09T03:01:54.844Z,60.98
2023-05-09T03:04:22.994Z,60.33
2023-05-09T03:06:50.668Z,60.21
2023-05-09T03:09:18.384Z,60.12
2023-05-09T03:11:46.142Z,60.35
2023-05-09T03:14:15.536Z,60.31
2023-05-09T03:16:43.312Z,60.53
2023-05-09T03:19:11.056Z,60.24
2023-05-09T03:21:40.491Z,60.31
2023-05-09T03:24:08.534Z,60.28
2023-05-09T03:26:36.635Z,59.99
2023-05-09T03:29:04.405Z,59.99
2023-05-09T03:31:33.737Z,59.97
2023-05-09T03:34:01.772Z,60.03
2023-05-09T03:36:29.747Z,59.94
2023-05-09T03:38:58.638Z,60.29
2023-05-09T03:41:26.365Z,59.89
2023-05-09T03:43:54.058Z,60.18
2023-05-09T03:46:21.830Z,60.28
2023-05-09T03:48:50.984Z,60.40
2023-05-09T03:51:18.859Z,60.18
2023-05-09T03:53:47.160Z,59.90
2023-05-09T03:56:14.903Z,59.80
2023-05-09T03:58:42.671Z,59.59
2023-05-09T04:01:10.758Z,59.99
2023-05-09T04:03:38.735Z,60.02
2023-05-09T04:06:08.412Z,60.03
2023-05-09T04:08:36.101Z,59.84
2023-05-09T04:11:03.798Z,60.03
2023-05-09T04:13:32.965Z,59.98
2023-05-09T04:16:01.513Z,59.97
2023-05-09T04:18:29.249Z,59.87
2023-05-09T04:20:56.962Z,59.98
2023-05-09T04:23:26.032Z,59.92
2023-05-09T04:25:54.342Z,59.65
2023-05-09T04:28:22.327Z,59.88
2023-05-09T04:30:50.128Z,59.89
2023-05-09T04:33:25.372Z,59.87
2023-05-09T04:35:55.696Z,60.22
2023-05-09T04:38:33.337Z,59.87
2023-05-09T04:41:25.870Z,59.88
2023-05-09T04:43:56.431Z,60.01
2023-05-09T04:46:46.330Z,59.89
2023-05-09T04:49:18.577Z,60.20
2023-05-09T04:51:51.877Z,60.14
2023-05-09T04:54:19.688Z,60.31
2023-05-09T04:56:50.608Z,60.52
2023-05-09T04:59:18.487Z,60.37
2023-05-09T05:01:46.351Z,60.37
2023-05-09T05:04:14.296Z,60.09
2023-05-09T05:06:53.671Z,59.89
2023-05-09T05:09:21.743Z,59.69
2023-05-09T05:12:00.000Z,59.86
2023-05-09T05:14:29.834Z,59.85
2023-05-09T05:16:57.763Z,59.87
2023-05-09T05:19:25.808Z,59.58
2023-05-09T05:21:53.699Z,59.50
2023-05-09T05:24:21.829Z,59.42
2023-05-09T05:26:51.178Z,59.86
2023-05-09T05:29:19.086Z,59.75
2023-05-09T05:31:46.913Z,59.57
2023-05-09T05:34:16.323Z,59.49
2023-05-09T05:36:44.349Z,59.40
2023-05-09T05:39:13.475Z,59.28
2023-05-09T05:41:41.245Z,58.92
2023-05-09T05:44:10.338Z,58.99
2023-05-09T05:46:38.012Z,58.72
2023-05-09T05:49:05.837Z,58.53
2023-05-09T05:51:33.670Z,58.04
2023-05-09T05:54:01.259Z,57.61
2023-05-09T05:56:28.943Z,57.35
2023-05-09T05:58:56.610Z,57.52
2023-05-09T06:01:25.736Z,57.35
2023-05-09T06:03:54.938Z,57.21
2023-05-09T06:06:22.794Z,57.48
2023-05-09T06:08:50.947Z,57.39
2023-05-09T06:11:18.757Z,57.08
2023-05-09T06:13:46.792Z,57.08
2023-05-09T06:16:19.212Z,57.18
2023-05-09T06:18:48.938Z,56.99
2023-05-09T06:21:16.552Z,56.76
2023-05-09T06:23:57.829Z,56.86
2023-05-09T06:26:31.969Z,56.68
2023-05-09T06:28:59.824Z,56.28
2023-05-09T06:31:27.750Z,56.17
2023-05-09T06:34:02.679Z,56.08
2023-05-09T06:36:30.920Z,55.87
2023-05-09T06:38:58.779Z,56.17
2023-05-09T06:41:26.672Z,55.82
2023-05-09T06:43:54.420Z,56.13
2023-05-09T06:46:22.347Z,56.33
2023-05-09T06:48:50.682Z,56.44
2023-05-09T06:51:20.696Z,56.20
2023-05-09T06:53:48.438Z,55.68
2023-05-09T06:56:17.386Z,55.65
2023-05-09T06:58:46.325Z,55.35
2023-05-09T07:01:14.145Z,54.87
2023-05-09T07:03:41.794Z,54.87
2023-05-09T07:06:09.670Z,54.21
2023-05-09T07:08:38.977Z,53.78
2023-05-09T07:11:06.629Z,52.67
2023-05-09T07:13:34.385Z,52.68
2023-05-09T07:16:02.084Z,52.38
2023-05-09T07:18:29.916Z,51.94
2023-05-09T07:20:57.582Z,51.46
2023-05-09T07:23:26.970Z,51.24
2023-05-09T07:25:58.925Z,50.50
2023-05-09T07:28:26.843Z,49.71
2023-05-09T07:30:56.322Z,48.72
2023-05-09T07:33:24.357Z,48.03
2023-05-09T07:35:53.195Z,47.79
2023-05-09T07:38:22.522Z,46.16
2023-05-09T07:40:50.309Z,45.15
2023-05-09T07:43:19.251Z,45.54
2023-05-09T07:45:47.333Z,45.24
2023-05-09T07:48:15.585Z,44.77
2023-05-09T07:50:58.287Z,44.77
2023-05-09T07:53:26.385Z,45.26
2023-05-09T07:55:54.074Z,45.47
2023-05-09T07:58:23.511Z,45.41
2023-05-09T08:00:51.528Z,45.40
2023-05-09T08:03:25.326Z,44.84
2023-05-09T08:08:36.270Z,45.09
2023-05-09T08:11:06.286Z,45.49
2023-05-09T08:13:35.431Z,44.80
2023-05-09T08:16:03.168Z,44.48
2023-05-09T08:18:38.996Z,44.08
2023-05-09T08:21:06.726Z,43.28
2023-05-09T08:23:34.457Z,42.56
2023-05-09T08:26:02.322Z,42.67
2023-05-09T08:28:32.550Z,43.67
2023-05-09T08:31:01.678Z,43.71
2023-05-09T08:33:29.601Z,43.13
2023-05-09T08:35:57.993Z,41.92
2023-05-09T08:38:26.039Z,41.91
2023-05-09T08:40:59.389Z,38.65
2023-05-09T08:43:26.982Z,38.33
2023-05-09T08:45:57.428Z,38.20
2023-05-09T08:48:26.805Z,38.49
2023-05-09T08:50:54.530Z,38.44
2023-05-09T08:53:26.270Z,38.76
2023-05-09T09:05:10.107Z,34.08
2023-05-09T09:07:44.384Z,33.43
2023-05-09T09:10:12.578Z,31.55
2023-05-09T09:12:40.933Z,31.03
2023-05-09T09:15:11.755Z,29.52
2023-05-09T09:17:40.349Z,28.76
2023-05-09T09:20:11.433Z,28.52
2023-05-09T09:22:39.503Z,27.97
2023-05-09T09:25:07.634Z,27.72
2023-05-09T09:27:38.400Z,27.63
2023-05-09T09:30:11.686Z,27.42
2023-05-09T09:32:42.329Z,27.70
2023-05-09T09:35:20.299Z,26.60
2023-05-09T09:37:48.546Z,26.95
2023-05-09T09:40:18.042Z,27.45
2023-05-09T09:42:47.053Z,26.86
2023-05-09T09:45:16.708Z,27.05
2023-05-09T09:47:52.027Z,26.92
2023-05-09T09:50:23.160Z,26.24
2023-05-09T09:52:51.662Z,25.81
2023-05-09T09:55:19.546Z,24.98
2023-05-09T09:57:48.568Z,24.15
2023-05-09T10:00:17.646Z,24.75
2023-05-09T10:02:49.661Z,24.50
2023-05-09T10:05:22.477Z,25.38
2023-05-09T10:07:55.514Z,25.23
2023-05-09T10:10:24.569Z,25.13
2023-05-09T10:13:22.680Z,24.54
2023-05-09T10:16:10.462Z,25.23
2023-05-09T10:19:01.373Z,25.58
2023-05-09T10:21:39.728Z,25.77
2023-05-09T10:24:07.771Z,25.81
2023-05-09T10:27:16.397Z,26.28
2023-05-09T10:29:52.707Z,27.24
2023-05-09T10:32:23.941Z,27.60
2023-05-09T10:34:53.966Z,27.41
2023-05-09T10:37:33.405Z,27.55
2023-05-09T10:40:10.087Z,28.04
2023-05-09T10:42:38.442Z,27.58
2023-05-09T10:45:09.450Z,27.92
2023-05-09T10:47:37.487Z,28.33
2023-05-09T10:50:09.986Z,29.07
2023-05-09T10:53:17.847Z,29.58
2023-05-09T10:58:26.234Z,30.85
2023-05-09T11:00:55.373Z,31.33
2023-05-09T11:03:25.822Z,31.27
2023-05-09T11:05:54.744Z,31.41
2023-05-09T11:08:25.406Z,31.43
2023-05-09T11:10:53.342Z,30.99
2023-05-09T11:13:23.351Z,30.84
2023-05-09T11:16:10.681Z,30.90
2023-05-09T11:18:51.542Z,31.74
2023-05-09T11:21:21.331Z,32.28
2023-05-09T11:23:52.958Z,32.28
2023-05-09T11:26:23.435Z,33.17
2023-05-09T11:28:56.868Z,33.48
2023-05-09T11:31:24.699Z,33.68
2023-05-09T11:33:58.536Z,34.03
2023-05-09T11:38:41.282Z,33.10
2023-05-09T11:40:33.306Z,33.88
2023-05-09T11:43:01.253Z,32.57
2023-05-09T11:45:29.828Z,32.82
2023-05-09T11:47:58.341Z,33.58
2023-05-09T11:50:26.106Z,32.58
2023-05-09T11:52:54.338Z,33.05
2023-05-09T11:55:25.105Z,33.26
2023-05-09T11:57:54.923Z,33.47
2023-05-09T12:00:23.579Z,32.61
2023-05-09T12:02:51.736Z,32.60
2023-05-09T12:05:19.977Z,31.29
2023-05-09T12:07:47.727Z,31.54
2023-05-09T12:10:16.751Z,32.35
2023-05-09T12:12:47.079Z,32.01
2023-05-09T12:15:15.319Z,31.75
2023-05-09T12:17:43.594Z,31.20
2023-05-09T12:20:11.684Z,32.04
2023-05-09T12:22:39.527Z,31.29
2023-05-09T12:25:08.547Z,30.62
2023-05-09T12:27:41.177Z,30.91
2023-05-09T12:30:11.993Z,30.86
2023-05-09T12:32:40.361Z,31.53
2023-05-09T12:35:09.525Z,31.74
2023-05-09T12:40:22.426Z,32.57
2023-05-09T12:43:00.828Z,32.51
2023-05-09T12:46:20.422Z,32.09
2023-05-09T12:48:50.780Z,32.48
2023-05-09T12:59:48.531Z,31.92
2023-05-09T13:02:16.583Z,32.14
2023-05-09T13:09:14.188Z,31.76
2023-05-09T13:18:21.762Z,32.84
2023-05-09T13:20:53.050Z,32.62
2023-05-09T13:27:00.694Z,33.03
2023-05-09T13:29:30.081Z,33.29
2023-05-09T13:31:58.556Z,33.26
2023-05-09T13:34:26.286Z,33.05
2023-05-09T13:36:54.192Z,33.26
2023-05-09T13:39:22.319Z,33.65
2023-05-09T13:41:52.892Z,33.51
2023-05-09T13:44:21.452Z,33.92
2023-05-09T13:46:51.087Z,34.00
2023-05-09T13:49:19.745Z,34.42
2023-05-09T13:51:47.819Z,34.55
2023-05-09T13:54:18.629Z,34.62
2023-05-09T13:56:46.509Z,34.62
2023-05-09T13:59:14.895Z,35.01
2023-05-09T14:01:42.834Z,34.79
2023-05-09T14:04:15.167Z,34.94
2023-05-09T14:06:48.131Z,34.37
2023-05-09T14:09:16.820Z,34.92
2023-05-09T14:11:58.957Z,35.31
2023-05-09T14:14:26.874Z,34.96
2023-05-09T14:16:54.814Z,34.89
2023-05-09T14:19:23.915Z,34.91
2023-05-09T14:21:51.935Z,34.92
2023-05-09T14:24:31.057Z,35.06
2023-05-09T14:26:59.317Z,35.17
2023-05-09T14:29:32.503Z,35.48
2023-05-09T14:32:00.481Z,35.38
2023-05-09T14:34:29.665Z,35.46
2023-05-09T14:36:57.761Z,35.24
2023-05-09T14:39:31.703Z,36.31
2023-05-09T14:42:02.642Z,37.45
2023-05-09T14:44:31.101Z,38.64
2023-05-09T14:47:16.735Z,39.26
2023-05-09T14:49:46.267Z,39.90
2023-05-09T14:52:15.327Z,40.58
2023-05-09T14:54:47.619Z,41.17
2023-05-09T14:57:16.187Z,42.30
2023-05-09T15:03:08.745Z,43.30
2023-05-09T15:09:04.501Z,44.99
2023-05-09T15:11:39.902Z,45.86
2023-05-09T15:18:18.389Z,47.01
2023-05-09T15:21:00.211Z,48.00
2023-05-09T15:24:12.040Z,48.38
2023-05-09T15:30:20.116Z,50.08
2023-05-09T15:34:40.409Z,50.20
2023-05-09T16:00:02.287Z,52.93
2023-05-09T16:08:54.671Z,53.26
2023-05-09T16:11:22.719Z,53.57
2023-05-09T16:13:51.595Z,53.70
2023-05-09T16:53:00.046Z,54.77
2023-05-09T16:59:38.985Z,55.65
2023-05-09T18:03:17.760Z,56.34
2023-05-09T18:05:45.787Z,56.14
2023-05-09T18:08:14.138Z,56.33
2023-05-09T18:10:42.271Z,55.91
2023-05-09T18:13:37.618Z,55.86
2023-05-09T18:16:06.169Z,56.36
2023-05-09T18:18:37.716Z,56.42
2023-05-09T18:21:08.131Z,56.38
2023-05-09T18:23:36.706Z,56.51
2023-05-09T18:26:04.966Z,56.16
2023-05-09T18:28:39.277Z,56.06
2023-05-09T18:31:09.600Z,56.10
2023-05-09T18:33:39.131Z,56.21
2023-05-09T18:36:10.444Z,56.14
2023-05-09T18:38:39.424Z,56.25
2023-05-09T18:41:07.939Z,56.59
2023-05-09T18:43:37.621Z,56.57
2023-05-09T18:46:10.890Z,56.80
2023-05-09T18:48:40.866Z,56.80
2023-05-09T18:51:09.024Z,56.96
2023-05-09T18:53:38.421Z,57.13
2023-05-09T18:56:06.447Z,56.78
2023-05-09T18:58:34.780Z,57.02
2023-05-09T19:01:02.892Z,56.70
2023-05-09T19:03:31.071Z,56.83
2023-05-09T19:06:01.948Z,57.01
2023-05-09T19:08:30.881Z,57.24
2023-05-09T19:11:00.204Z,57.14
2023-05-09T19:13:28.668Z,57.44
2023-05-09T19:15:56.856Z,57.30
2023-05-09T19:18:24.735Z,57.11
2023-05-09T19:20:52.957Z,57.48
2023-05-09T19:23:22.820Z,57.38
2023-05-09T19:25:52.173Z,57.59
2023-05-09T19:28:20.336Z,57.88
2023-05-09T19:30:48.823Z,57.70
2023-05-09T19:33:16.713Z,58.04
2023-05-09T19:35:44.978Z,57.82
2023-05-09T19:38:12.912Z,57.94
2023-05-09T19:40:42.248Z,57.92
2023-05-09T19:43:10.111Z,58.31
2023-05-09T19:45:38.145Z,58.13
2023-05-09T19:48:06.563Z,58.37
2023-05-09T19:50:34.511Z,58.33
2023-05-09T19:53:03.204Z,58.02
2023-05-09T19:55:31.652Z,58.01
2023-05-09T19:58:01.408Z,58.16
2023-05-09T20:00:29.245Z,57.93
2023-05-09T20:02:57.416Z,58.31
2023-05-09T20:05:26.250Z,57.85
2023-05-09T20:07:55.629Z,58.43
2023-05-09T20:10:23.896Z,58.15
2023-05-09T20:12:53.124Z,58.42
2023-05-09T20:15:22.538Z,58.76
2023-05-09T20:17:50.779Z,58.50
2023-05-09T20:20:18.755Z,58.25
2023-05-09T20:22:46.722Z,58.19
2023-05-09T20:25:15.415Z,58.15
2023-05-09T20:27:43.449Z,58.54
2023-05-09T20:30:12.820Z,58.23
2023-05-09T20:32:43.126Z,58.26
2023-05-09T20:35:11.352Z,58.02
2023-05-09T20:37:39.580Z,58.12
2023-05-09T20:40:09.233Z,57.67
2023-05-09T20:42:37.475Z,57.53
2023-05-09T20:45:06.054Z,57.49
2023-05-09T20:47:33.967Z,57.94
2023-05-09T20:50:03.367Z,57.80
2023-05-09T20:52:35.067Z,57.78
2023-05-09T20:55:03.068Z,57.69
2023-05-09T20:57:30.790Z,57.82
2023-05-09T20:59:58.554Z,57.51
2023-05-09T21:02:37.899Z,57.82
2023-05-09T21:05:08.140Z,57.83
2023-05-09T21:07:38.850Z,57.42
2023-05-09T21:10:07.616Z,57.88
2023-05-09T21:12:35.404Z,58.20
2023-05-09T21:15:03.685Z,58.14
2023-05-09T21:17:31.471Z,58.15
2023-05-09T21:19:59.393Z,57.96
2023-05-09T21:22:28.601Z,58.04
2023-05-09T21:24:56.360Z,57.64
2023-05-09T21:27:24.232Z,58.18
2023-05-09T21:29:51.873Z,58.03
2023-05-09T21:32:19.826Z,57.96
2023-05-09T21:34:48.585Z,58.19
2023-05-09T21:37:16.426Z,58.28
2023-05-09T21:39:46.170Z,58.62
2023-05-09T21:42:13.940Z,57.97
2023-05-09T21:44:41.673Z,58.42
2023-05-09T21:47:10.214Z,58.51
2023-05-09T21:49:38.093Z,58.40
2023-05-09T21:52:06.306Z,58.82
2023-05-09T21:54:34.098Z,58.49
2023-05-09T21:57:03.339Z,58.56
2023-05-09T21:59:31.029Z,58.41
2023-05-09T22:01:58.780Z,58.80
2023-05-09T22:04:26.631Z,58.65
2023-05-09T22:06:54.480Z,58.64
2023-05-09T22:09:23.444Z,58.82
2023-05-09T22:11:51.780Z,58.84
2023-05-09T22:14:21.027Z,58.85
2023-05-09T22:16:49.820Z,58.73
2023-05-09T22:19:17.536Z,58.95
2023-05-09T22:21:45.338Z,58.91
2023-05-09T22:24:13.623Z,58.72
2023-05-09T22:26:43.226Z,58.72
2023-05-09T22:29:10.960Z,58.72
2023-05-09T22:31:40.118Z,58.79
2023-05-09T22:34:07.857Z,58.86
2023-05-09T22:36:35.648Z,59.20
2023-05-09T22:39:03.416Z,58.84
2023-05-09T22:41:31.110Z,58.93
2023-05-09T22:43:58.807Z,59.07
2023-05-09T22:46:26.813Z,59.04
2023-05-09T22:48:56.049Z,59.00
2023-05-09T22:51:23.976Z,59.33
2023-05-09T22:53:51.692Z,58.96
2023-05-09T22:56:19.556Z,59.48
2023-05-09T22:58:47.464Z,58.98
2023-05-09T23:01:15.312Z,59.32
2023-05-09T23:03:43.930Z,59.50
2023-05-09T23:06:13.082Z,59.33
2023-05-09T23:08:40.775Z,59.72
2023-05-09T23:11:08.600Z,59.34
2023-05-09T23:13:36.529Z,59.60
2023-05-09T23:16:04.340Z,59.61
2023-05-09T23:18:32.405Z,59.81
2023-05-09T23:21:00.362Z,59.76
2023-05-09T23:23:29.720Z,59.98
2023-05-09T23:25:57.689Z,59.80
2023-05-09T23:28:25.992Z,59.69
2023-05-09T23:30:54.519Z,59.73
2023-05-09T23:33:22.427Z,59.93
2023-05-09T23:35:52.364Z,59.93
2023-05-09T23:38:20.321Z,59.85
2023-05-09T23:40:49.563Z,59.98
2023-05-09T23:43:20.404Z,60.04
2023-05-09T23:45:48.233Z,59.83
2023-05-09T23:48:16.032Z,59.61
2023-05-09T23:50:44.755Z,60.08
2023-05-09T23:53:12.484Z,59.86
2023-05-09T23:55:43.011Z,59.94
2023-05-09T23:58:12.144Z,60.14
